sensor_id;sensor_type;location;lat;lon;timestamp;P1;durP1;ratioP1;P2;durP2;ratioP2
39968;SDS011;25648;47.808;19.004;2022-10-18T00:01:04;24.80;;;15.50;;
39968;SDS011;25648;47.808;19.004;2022-10-18T00:03:31;25.83;;;17.10;;
39968;SDS011;25648;47.808;19.004;2022-10-18T00:05:57;29.35;;;18.67;;
39968;SDS011;25648;47.808;19.004;2022-10-18T00:08:23;25.45;;;18.45;;
39968;SDS011;25648;47.808;19.004;2022-10-18T00:10:49;29.60;;;17.98;;
39968;SDS011;25648;47.808;19.004;2022-10-18T00:13:16;22.70;;;16.50;;
39968;SDS011;25648;47.808;19.004;2022-10-18T00:15:55;23.83;;;16.17;;
39968;SDS011;25648;47.808;19.004;2022-10-18T00:18:23;25.33;;;17.45;;
39968;SDS011;25648;47.808;19.004;2022-10-18T00:23:30;26.88;;;16.40;;
39968;SDS011;25648;47.808;19.004;2022-10-18T00:25:58;24.98;;;16.77;;
39968;SDS011;25648;47.808;19.004;2022-10-18T00:28:28;23.17;;;16.38;;
39968;SDS011;25648;47.808;19.004;2022-10-18T00:30:54;23.45;;;15.07;;
39968;SDS011;25648;47.808;19.004;2022-10-18T00:33:19;22.52;;;15.80;;
39968;SDS011;25648;47.808;19.004;2022-10-18T00:35:45;22.85;;;15.90;;
39968;SDS011;25648;47.808;19.004;2022-10-18T00:38:11;24.02;;;16.65;;
39968;SDS011;25648;47.808;19.004;2022-10-18T00:40:36;23.50;;;15.57;;
39968;SDS011;25648;47.808;19.004;2022-10-18T00:43:02;24.10;;;15.90;;
39968;SDS011;25648;47.808;19.004;2022-10-18T00:45:28;20.35;;;14.10;;
39968;SDS011;25648;47.808;19.004;2022-10-18T00:47:58;24.08;;;16.25;;
39968;SDS011;25648;47.808;19.004;2022-10-18T00:50:27;26.02;;;16.70;;
39968;SDS011;25648;47.808;19.004;2022-10-18T00:52:57;24.77;;;16.40;;
39968;SDS011;25648;47.808;19.004;2022-10-18T00:55:30;22.13;;;15.63;;
39968;SDS011;25648;47.808;19.004;2022-10-18T00:57:57;22.57;;;15.30;;
39968;SDS011;25648;47.808;19.004;2022-10-18T01:00:23;24.75;;;15.15;;
39968;SDS011;25648;47.808;19.004;2022-10-18T01:02:49;25.48;;;15.90;;
39968;SDS011;25648;47.808;19.004;2022-10-18T01:05:16;20.88;;;15.23;;
39968;SDS011;25648;47.808;19.004;2022-10-18T01:13:45;23.80;;;14.68;;
39968;SDS011;25648;47.808;19.004;2022-10-18T01:22:25;24.13;;;14.77;;
39968;SDS011;25648;47.808;19.004;2022-10-18T01:32:48;23.55;;;14.65;;
39968;SDS011;25648;47.808;19.004;2022-10-18T01:35:17;23.92;;;14.35;;
39968;SDS011;25648;47.808;19.004;2022-10-18T01:37:47;23.40;;;14.93;;
39968;SDS011;25648;47.808;19.004;2022-10-18T01:40:16;27.30;;;15.75;;
39968;SDS011;25648;47.808;19.004;2022-10-18T01:42:45;23.38;;;15.30;;
39968;SDS011;25648;47.808;19.004;2022-10-18T01:45:12;24.95;;;16.67;;
39968;SDS011;25648;47.808;19.004;2022-10-18T01:47:41;21.45;;;14.45;;
39968;SDS011;25648;47.808;19.004;2022-10-18T01:50:10;20.90;;;14.10;;
39968;SDS011;25648;47.808;19.004;2022-10-18T01:52:46;20.40;;;14.05;;
39968;SDS011;25648;47.808;19.004;2022-10-18T01:55:15;23.77;;;15.68;;
39968;SDS011;25648;47.808;19.004;2022-10-18T01:57:51;19.83;;;13.50;;
39968;SDS011;25648;47.808;19.004;2022-10-18T02:00:41;21.73;;;13.45;;
39968;SDS011;25648;47.808;19.004;2022-10-18T02:03:13;22.42;;;13.25;;
39968;SDS011;25648;47.808;19.004;2022-10-18T02:05:55;22.02;;;14.25;;
39968;SDS011;25648;47.808;19.004;2022-10-18T02:11:04;18.42;;;12.93;;
39968;SDS011;25648;47.808;19.004;2022-10-18T02:13:35;20.67;;;13.43;;
39968;SDS011;25648;47.808;19.004;2022-10-18T02:16:16;24.90;;;14.25;;
39968;SDS011;25648;47.808;19.004;2022-10-18T02:18:47;21.55;;;13.80;;
39968;SDS011;25648;47.808;19.004;2022-10-18T02:21:18;22.58;;;14.57;;
39968;SDS011;25648;47.808;19.004;2022-10-18T02:23:45;20.75;;;14.10;;
39968;SDS011;25648;47.808;19.004;2022-10-18T02:26:12;21.38;;;13.45;;
39968;SDS011;25648;47.808;19.004;2022-10-18T02:39:10;24.80;;;15.38;;
39968;SDS011;25648;47.808;19.004;2022-10-18T02:41:42;20.17;;;14.40;;
39968;SDS011;25648;47.808;19.004;2022-10-18T02:44:08;23.50;;;13.77;;
39968;SDS011;25648;47.808;19.004;2022-10-18T02:46:34;20.92;;;13.15;;
39968;SDS011;25648;47.808;19.004;2022-10-18T02:49:00;22.80;;;13.93;;
39968;SDS011;25648;47.808;19.004;2022-10-18T02:51:26;19.27;;;14.00;;
39968;SDS011;25648;47.808;19.004;2022-10-18T02:53:52;22.52;;;13.75;;
39968;SDS011;25648;47.808;19.004;2022-10-18T02:56:17;18.88;;;13.48;;
39968;SDS011;25648;47.808;19.004;2022-10-18T02:58:43;21.30;;;13.82;;
39968;SDS011;25648;47.808;19.004;2022-10-18T03:01:09;22.98;;;14.30;;
39968;SDS011;25648;47.808;19.004;2022-10-18T03:03:34;23.52;;;14.70;;
39968;SDS011;25648;47.808;19.004;2022-10-18T03:06:00;19.52;;;13.68;;
39968;SDS011;25648;47.808;19.004;2022-10-18T03:08:26;22.30;;;14.15;;
39968;SDS011;25648;47.808;19.004;2022-10-18T03:10:51;23.52;;;15.50;;
39968;SDS011;25648;47.808;19.004;2022-10-18T03:13:17;28.67;;;14.98;;
39968;SDS011;25648;47.808;19.004;2022-10-18T03:15:43;21.75;;;14.32;;
39968;SDS011;25648;47.808;19.004;2022-10-18T03:18:08;21.27;;;13.98;;
39968;SDS011;25648;47.808;19.004;2022-10-18T03:20:34;22.85;;;14.02;;
39968;SDS011;25648;47.808;19.004;2022-10-18T03:23:00;19.17;;;13.07;;
39968;SDS011;25648;47.808;19.004;2022-10-18T03:25:27;23.55;;;15.13;;
39968;SDS011;25648;47.808;19.004;2022-10-18T03:27:52;21.58;;;15.13;;
39968;SDS011;25648;47.808;19.004;2022-10-18T03:30:18;19.98;;;14.30;;
39968;SDS011;25648;47.808;19.004;2022-10-18T03:32:44;25.25;;;16.02;;
39968;SDS011;25648;47.808;19.004;2022-10-18T03:35:09;19.80;;;13.40;;
39968;SDS011;25648;47.808;19.004;2022-10-18T03:37:35;20.65;;;14.45;;
39968;SDS011;25648;47.808;19.004;2022-10-18T03:40:01;18.65;;;13.23;;
39968;SDS011;25648;47.808;19.004;2022-10-18T03:42:28;23.95;;;15.07;;
39968;SDS011;25648;47.808;19.004;2022-10-18T03:44:53;19.58;;;14.35;;
39968;SDS011;25648;47.808;19.004;2022-10-18T03:47:19;25.38;;;15.88;;
39968;SDS011;25648;47.808;19.004;2022-10-18T03:49:45;23.35;;;15.88;;
39968;SDS011;25648;47.808;19.004;2022-10-18T03:52:10;29.75;;;15.98;;
39968;SDS011;25648;47.808;19.004;2022-10-18T03:54:36;25.83;;;17.25;;
39968;SDS011;25648;47.808;19.004;2022-10-18T03:57:02;21.35;;;13.57;;
39968;SDS011;25648;47.808;19.004;2022-10-18T03:59:28;21.83;;;13.98;;
39968;SDS011;25648;47.808;19.004;2022-10-18T04:01:55;19.63;;;12.68;;
39968;SDS011;25648;47.808;19.004;2022-10-18T04:04:21;24.92;;;14.32;;
39968;SDS011;25648;47.808;19.004;2022-10-18T04:06:47;24.95;;;15.75;;
39968;SDS011;25648;47.808;19.004;2022-10-18T04:09:12;24.80;;;16.60;;
39968;SDS011;25648;47.808;19.004;2022-10-18T04:11:38;22.10;;;15.07;;
39968;SDS011;25648;47.808;19.004;2022-10-18T04:14:04;29.48;;;16.27;;
39968;SDS011;25648;47.808;19.004;2022-10-18T04:16:29;22.88;;;15.02;;
39968;SDS011;25648;47.808;19.004;2022-10-18T04:18:55;30.45;;;17.40;;
39968;SDS011;25648;47.808;19.004;2022-10-18T04:21:21;29.42;;;16.48;;
39968;SDS011;25648;47.808;19.004;2022-10-18T04:23:47;23.42;;;15.52;;
39968;SDS011;25648;47.808;19.004;2022-10-18T04:26:13;23.80;;;14.98;;
39968;SDS011;25648;47.808;19.004;2022-10-18T04:28:40;19.92;;;14.57;;
39968;SDS011;25648;47.808;19.004;2022-10-18T04:31:07;23.00;;;15.07;;
39968;SDS011;25648;47.808;19.004;2022-10-18T04:33:33;27.45;;;15.38;;
39968;SDS011;25648;47.808;19.004;2022-10-18T04:35:59;23.90;;;15.35;;
39968;SDS011;25648;47.808;19.004;2022-10-18T04:38:24;24.83;;;16.60;;
39968;SDS011;25648;47.808;19.004;2022-10-18T04:40:50;24.45;;;16.65;;
39968;SDS011;25648;47.808;19.004;2022-10-18T04:43:16;23.25;;;15.95;;
39968;SDS011;25648;47.808;19.004;2022-10-18T04:45:43;24.30;;;15.38;;
39968;SDS011;25648;47.808;19.004;2022-10-18T04:48:10;24.27;;;15.57;;
39968;SDS011;25648;47.808;19.004;2022-10-18T04:50:36;24.17;;;13.82;;
39968;SDS011;25648;47.808;19.004;2022-10-18T04:53:01;22.58;;;15.05;;
39968;SDS011;25648;47.808;19.004;2022-10-18T04:55:27;20.73;;;13.77;;
39968;SDS011;25648;47.808;19.004;2022-10-18T04:57:53;22.55;;;14.05;;
39968;SDS011;25648;47.808;19.004;2022-10-18T05:00:19;21.33;;;14.70;;
39968;SDS011;25648;47.808;19.004;2022-10-18T05:02:44;22.55;;;15.20;;
39968;SDS011;25648;47.808;19.004;2022-10-18T05:05:10;23.35;;;14.75;;
39968;SDS011;25648;47.808;19.004;2022-10-18T05:07:36;21.60;;;14.45;;
39968;SDS011;25648;47.808;19.004;2022-10-18T05:10:02;25.00;;;14.52;;
39968;SDS011;25648;47.808;19.004;2022-10-18T05:12:28;18.65;;;13.20;;
39968;SDS011;25648;47.808;19.004;2022-10-18T05:14:54;22.63;;;14.35;;
39968;SDS011;25648;47.808;19.004;2022-10-18T05:17:19;21.70;;;13.25;;
39968;SDS011;25648;47.808;19.004;2022-10-18T05:19:45;18.48;;;13.45;;
39968;SDS011;25648;47.808;19.004;2022-10-18T05:22:11;20.60;;;14.15;;
39968;SDS011;25648;47.808;19.004;2022-10-18T05:24:36;23.13;;;15.25;;
39968;SDS011;25648;47.808;19.004;2022-10-18T05:27:02;22.25;;;14.55;;
39968;SDS011;25648;47.808;19.004;2022-10-18T05:29:28;27.45;;;16.33;;
39968;SDS011;25648;47.808;19.004;2022-10-18T05:31:54;23.67;;;16.08;;
39968;SDS011;25648;47.808;19.004;2022-10-18T05:34:22;21.80;;;14.80;;
39968;SDS011;25648;47.808;19.004;2022-10-18T05:36:48;18.52;;;12.40;;
39968;SDS011;25648;47.808;19.004;2022-10-18T05:39:14;19.33;;;13.18;;
39968;SDS011;25648;47.808;19.004;2022-10-18T05:41:40;21.92;;;13.43;;
39968;SDS011;25648;47.808;19.004;2022-10-18T05:44:06;20.85;;;13.95;;
39968;SDS011;25648;47.808;19.004;2022-10-18T05:46:32;19.40;;;13.25;;
39968;SDS011;25648;47.808;19.004;2022-10-18T05:48:58;22.98;;;14.15;;
39968;SDS011;25648;47.808;19.004;2022-10-18T05:51:23;28.55;;;16.50;;
39968;SDS011;25648;47.808;19.004;2022-10-18T05:53:49;24.70;;;15.90;;
39968;SDS011;25648;47.808;19.004;2022-10-18T05:56:15;24.30;;;15.80;;
39968;SDS011;25648;47.808;19.004;2022-10-18T05:58:41;28.45;;;17.33;;
39968;SDS011;25648;47.808;19.004;2022-10-18T06:01:07;26.65;;;16.85;;
39968;SDS011;25648;47.808;19.004;2022-10-18T06:03:34;31.75;;;17.70;;
39968;SDS011;25648;47.808;19.004;2022-10-18T06:06:07;27.85;;;16.98;;
39968;SDS011;25648;47.808;19.004;2022-10-18T06:08:35;28.15;;;16.20;;
39968;SDS011;25648;47.808;19.004;2022-10-18T06:11:19;26.90;;;15.70;;
39968;SDS011;25648;47.808;19.004;2022-10-18T06:13:46;31.15;;;17.73;;
39968;SDS011;25648;47.808;19.004;2022-10-18T06:16:15;29.77;;;19.48;;
39968;SDS011;25648;47.808;19.004;2022-10-18T06:18:46;28.83;;;17.92;;
39968;SDS011;25648;47.808;19.004;2022-10-18T06:21:13;31.77;;;20.65;;
39968;SDS011;25648;47.808;19.004;2022-10-18T06:23:39;32.95;;;19.70;;
39968;SDS011;25648;47.808;19.004;2022-10-18T06:26:06;29.67;;;19.80;;
39968;SDS011;25648;47.808;19.004;2022-10-18T06:28:34;29.08;;;18.17;;
39968;SDS011;25648;47.808;19.004;2022-10-18T06:31:01;33.72;;;19.67;;
39968;SDS011;25648;47.808;19.004;2022-10-18T06:33:29;29.17;;;18.27;;
39968;SDS011;25648;47.808;19.004;2022-10-18T06:38:22;27.92;;;17.77;;
39968;SDS011;25648;47.808;19.004;2022-10-18T06:40:48;29.67;;;18.23;;
39968;SDS011;25648;47.808;19.004;2022-10-18T06:43:14;27.55;;;18.20;;
39968;SDS011;25648;47.808;19.004;2022-10-18T06:45:39;30.27;;;19.95;;
39968;SDS011;25648;47.808;19.004;2022-10-18T06:48:05;25.35;;;17.10;;
39968;SDS011;25648;47.808;19.004;2022-10-18T06:50:31;26.20;;;17.17;;
39968;SDS011;25648;47.808;19.004;2022-10-18T06:52:57;26.48;;;17.00;;
39968;SDS011;25648;47.808;19.004;2022-10-18T06:55:22;23.77;;;16.10;;
39968;SDS011;25648;47.808;19.004;2022-10-18T06:57:48;23.63;;;16.25;;
39968;SDS011;25648;47.808;19.004;2022-10-18T07:00:14;24.67;;;15.75;;
39968;SDS011;25648;47.808;19.004;2022-10-18T07:02:39;20.83;;;15.15;;
39968;SDS011;25648;47.808;19.004;2022-10-18T07:05:09;22.85;;;15.98;;
39968;SDS011;25648;47.808;19.004;2022-10-18T07:07:35;25.50;;;15.82;;
39968;SDS011;25648;47.808;19.004;2022-10-18T07:10:01;22.55;;;15.32;;
39968;SDS011;25648;47.808;19.004;2022-10-18T07:12:27;22.55;;;15.05;;
39968;SDS011;25648;47.808;19.004;2022-10-18T07:14:53;23.98;;;15.57;;
39968;SDS011;25648;47.808;19.004;2022-10-18T07:17:19;24.00;;;14.50;;
39968;SDS011;25648;47.808;19.004;2022-10-18T07:19:45;21.90;;;15.38;;
39968;SDS011;25648;47.808;19.004;2022-10-18T07:22:10;21.77;;;14.90;;
39968;SDS011;25648;47.808;19.004;2022-10-18T07:24:36;24.75;;;14.95;;
39968;SDS011;25648;47.808;19.004;2022-10-18T07:27:02;21.83;;;15.63;;
39968;SDS011;25648;47.808;19.004;2022-10-18T07:29:27;22.92;;;15.45;;
39968;SDS011;25648;47.808;19.004;2022-10-18T07:31:53;22.27;;;15.15;;
39968;SDS011;25648;47.808;19.004;2022-10-18T07:34:19;23.20;;;16.10;;
39968;SDS011;25648;47.808;19.004;2022-10-18T07:36:45;20.77;;;15.20;;
39968;SDS011;25648;47.808;19.004;2022-10-18T07:39:11;22.20;;;14.43;;
39968;SDS011;25648;47.808;19.004;2022-10-18T07:41:36;19.90;;;14.52;;
39968;SDS011;25648;47.808;19.004;2022-10-18T07:44:03;25.35;;;15.10;;
39968;SDS011;25648;47.808;19.004;2022-10-18T07:46:29;21.02;;;14.90;;
39968;SDS011;25648;47.808;19.004;2022-10-18T07:48:55;19.60;;;14.43;;
39968;SDS011;25648;47.808;19.004;2022-10-18T07:51:23;18.42;;;14.27;;
39968;SDS011;25648;47.808;19.004;2022-10-18T07:53:50;21.35;;;14.65;;
39968;SDS011;25648;47.808;19.004;2022-10-18T07:56:17;24.08;;;14.60;;
39968;SDS011;25648;47.808;19.004;2022-10-18T07:58:45;20.02;;;15.15;;
39968;SDS011;25648;47.808;19.004;2022-10-18T08:01:13;18.10;;;13.77;;
39968;SDS011;25648;47.808;19.004;2022-10-18T08:03:40;18.95;;;13.80;;
39968;SDS011;25648;47.808;19.004;2022-10-18T08:06:07;18.58;;;13.18;;
39968;SDS011;25648;47.808;19.004;2022-10-18T08:08:35;18.60;;;13.75;;
39968;SDS011;25648;47.808;19.004;2022-10-18T08:11:03;18.52;;;13.48;;
39968;SDS011;25648;47.808;19.004;2022-10-18T08:13:30;22.23;;;14.38;;
39968;SDS011;25648;47.808;19.004;2022-10-18T08:16:03;20.13;;;13.75;;
39968;SDS011;25648;47.808;19.004;2022-10-18T08:18:30;18.33;;;12.77;;
39968;SDS011;25648;47.808;19.004;2022-10-18T08:20:58;18.77;;;13.05;;
39968;SDS011;25648;47.808;19.004;2022-10-18T08:23:27;24.02;;;14.00;;
39968;SDS011;25648;47.808;19.004;2022-10-18T08:25:53;19.98;;;14.25;;
39968;SDS011;25648;47.808;19.004;2022-10-18T08:28:19;19.25;;;13.95;;
39968;SDS011;25648;47.808;19.004;2022-10-18T08:30:45;21.27;;;13.40;;
39968;SDS011;25648;47.808;19.004;2022-10-18T08:33:10;20.55;;;13.57;;
39968;SDS011;25648;47.808;19.004;2022-10-18T08:35:36;18.92;;;13.25;;
39968;SDS011;25648;47.808;19.004;2022-10-18T08:38:02;16.85;;;12.75;;
39968;SDS011;25648;47.808;19.004;2022-10-18T08:40:28;17.10;;;12.70;;
39968;SDS011;25648;47.808;19.004;2022-10-18T08:45:44;18.17;;;13.20;;
39968;SDS011;25648;47.808;19.004;2022-10-18T08:48:19;17.25;;;12.80;;
39968;SDS011;25648;47.808;19.004;2022-10-18T08:50:56;15.95;;;12.55;;
39968;SDS011;25648;47.808;19.004;2022-10-18T08:53:28;17.60;;;12.15;;
39968;SDS011;25648;47.808;19.004;2022-10-18T08:56:02;17.65;;;11.95;;
39968;SDS011;25648;47.808;19.004;2022-10-18T08:58:35;16.15;;;11.88;;
39968;SDS011;25648;47.808;19.004;2022-10-18T09:09:37;17.58;;;12.18;;
39968;SDS011;25648;47.808;19.004;2022-10-18T09:18:08;16.80;;;11.68;;
39968;SDS011;25648;47.808;19.004;2022-10-18T09:20:53;16.02;;;11.27;;
39968;SDS011;25648;47.808;19.004;2022-10-18T09:26:24;17.15;;;11.70;;
39968;SDS011;25648;47.808;19.004;2022-10-18T09:31:59;15.77;;;11.00;;
39968;SDS011;25648;47.808;19.004;2022-10-18T09:34:49;15.52;;;10.77;;
39968;SDS011;25648;47.808;19.004;2022-10-18T09:37:29;14.27;;;10.50;;
39968;SDS011;25648;47.808;19.004;2022-10-18T09:40:21;14.57;;;10.60;;
39968;SDS011;25648;47.808;19.004;2022-10-18T09:43:05;18.48;;;11.40;;
39968;SDS011;25648;47.808;19.004;2022-10-18T09:45:39;17.83;;;10.00;;
39968;SDS011;25648;47.808;19.004;2022-10-18T09:48:12;13.55;;;8.85;;
39968;SDS011;25648;47.808;19.004;2022-10-18T09:50:40;15.23;;;9.15;;
39968;SDS011;25648;47.808;19.004;2022-10-18T09:58:22;13.20;;;9.45;;
39968;SDS011;25648;47.808;19.004;2022-10-18T10:00:50;12.90;;;9.55;;
39968;SDS011;25648;47.808;19.004;2022-10-18T10:03:17;12.63;;;9.57;;
39968;SDS011;25648;47.808;19.004;2022-10-18T10:05:43;14.45;;;9.63;;
39968;SDS011;25648;47.808;19.004;2022-10-18T10:08:09;16.98;;;9.43;;
39968;SDS011;25648;47.808;19.004;2022-10-18T10:10:39;12.38;;;9.23;;
39968;SDS011;25648;47.808;19.004;2022-10-18T10:13:14;14.15;;;9.65;;
39968;SDS011;25648;47.808;19.004;2022-10-18T10:15:44;15.63;;;9.68;;
39968;SDS011;25648;47.808;19.004;2022-10-18T10:18:19;15.52;;;8.77;;
39968;SDS011;25648;47.808;19.004;2022-10-18T10:20:53;14.48;;;9.68;;
39968;SDS011;25648;47.808;19.004;2022-10-18T10:23:25;15.95;;;10.05;;
39968;SDS011;25648;47.808;19.004;2022-10-18T10:25:55;20.65;;;9.05;;
39968;SDS011;25648;47.808;19.004;2022-10-18T10:28:44;12.50;;;9.07;;
39968;SDS011;25648;47.808;19.004;2022-10-18T10:36:24;14.60;;;9.27;;
39968;SDS011;25648;47.808;19.004;2022-10-18T10:39:06;17.17;;;9.70;;
39968;SDS011;25648;47.808;19.004;2022-10-18T10:41:42;16.75;;;9.50;;
39968;SDS011;25648;47.808;19.004;2022-10-18T10:44:19;13.63;;;9.45;;
39968;SDS011;25648;47.808;19.004;2022-10-18T10:46:47;15.43;;;9.60;;
39968;SDS011;25648;47.808;19.004;2022-10-18T10:49:22;16.23;;;9.95;;
39968;SDS011;25648;47.808;19.004;2022-10-18T10:52:04;12.97;;;8.40;;
39968;SDS011;25648;47.808;19.004;2022-10-18T10:54:31;17.33;;;8.35;;
39968;SDS011;25648;47.808;19.004;2022-10-18T10:59:30;13.30;;;8.18;;
39968;SDS011;25648;47.808;19.004;2022-10-18T11:04:40;12.90;;;8.85;;
39968;SDS011;25648;47.808;19.004;2022-10-18T11:12:38;16.85;;;8.57;;
39968;SDS011;25648;47.808;19.004;2022-10-18T11:15:21;13.80;;;8.52;;
39968;SDS011;25648;47.808;19.004;2022-10-18T11:40:18;12.23;;;6.00;;
39968;SDS011;25648;47.808;19.004;2022-10-18T11:53:40;9.15;;;5.40;;
39968;SDS011;25648;47.808;19.004;2022-10-18T12:05:15;8.48;;;6.20;;
39968;SDS011;25648;47.808;19.004;2022-10-18T12:08:01;8.77;;;5.90;;
39968;SDS011;25648;47.808;19.004;2022-10-18T12:10:37;9.35;;;5.32;;
39968;SDS011;25648;47.808;19.004;2022-10-18T12:13:07;8.45;;;6.00;;
39968;SDS011;25648;47.808;19.004;2022-10-18T12:18:14;9.48;;;5.80;;
39968;SDS011;25648;47.808;19.004;2022-10-18T12:20:50;11.80;;;6.03;;
39968;SDS011;25648;47.808;19.004;2022-10-18T12:26:24;8.93;;;5.30;;
39968;SDS011;25648;47.808;19.004;2022-10-18T12:31:42;10.15;;;5.70;;
39968;SDS011;25648;47.808;19.004;2022-10-18T12:34:25;8.43;;;5.25;;
39968;SDS011;25648;47.808;19.004;2022-10-18T12:42:26;11.43;;;5.97;;
39968;SDS011;25648;47.808;19.004;2022-10-18T12:47:37;8.65;;;5.72;;
39968;SDS011;25648;47.808;19.004;2022-10-18T12:50:05;10.52;;;6.65;;
39968;SDS011;25648;47.808;19.004;2022-10-18T12:55:50;9.07;;;5.80;;
39968;SDS011;25648;47.808;19.004;2022-10-18T12:58:27;11.35;;;5.47;;
39968;SDS011;25648;47.808;19.004;2022-10-18T13:00:56;9.55;;;5.80;;
39968;SDS011;25648;47.808;19.004;2022-10-18T13:05:58;10.90;;;5.32;;
39968;SDS011;25648;47.808;19.004;2022-10-18T13:27:02;8.38;;;5.28;;
39968;SDS011;25648;47.808;19.004;2022-10-18T13:34:52;14.15;;;5.55;;
39968;SDS011;25648;47.808;19.004;2022-10-18T13:37:19;15.63;;;6.28;;
39968;SDS011;25648;47.808;19.004;2022-10-18T13:44:40;12.35;;;5.35;;
39968;SDS011;25648;47.808;19.004;2022-10-18T13:47:12;11.40;;;5.85;;
39968;SDS011;25648;47.808;19.004;2022-10-18T13:49:57;9.68;;;5.32;;
39968;SDS011;25648;47.808;19.004;2022-10-18T14:03:03;9.05;;;5.55;;
39968;SDS011;25648;47.808;19.004;2022-10-18T14:05:51;13.75;;;6.30;;
39968;SDS011;25648;47.808;19.004;2022-10-18T14:11:04;21.10;;;7.05;;
39968;SDS011;25648;47.808;19.004;2022-10-18T14:22:19;16.17;;;9.95;;
39968;SDS011;25648;47.808;19.004;2022-10-18T14:25:17;19.40;;;10.25;;
39968;SDS011;25648;47.808;19.004;2022-10-18T14:27:45;19.75;;;9.63;;
39968;SDS011;25648;47.808;19.004;2022-10-18T14:32:40;10.13;;;6.70;;
39968;SDS011;25648;47.808;19.004;2022-10-18T14:35:21;8.75;;;6.20;;
39968;SDS011;25648;47.808;19.004;2022-10-18T14:37:50;17.17;;;9.98;;
39968;SDS011;25648;47.808;19.004;2022-10-18T14:43:04;20.20;;;12.90;;
39968;SDS011;25648;47.808;19.004;2022-10-18T14:45:30;26.13;;;17.08;;
39968;SDS011;25648;47.808;19.004;2022-10-18T14:50:38;16.55;;;11.32;;
39968;SDS011;25648;47.808;19.004;2022-10-18T14:53:06;20.85;;;10.20;;
39968;SDS011;25648;47.808;19.004;2022-10-18T14:55:36;14.57;;;7.60;;
39968;SDS011;25648;47.808;19.004;2022-10-18T14:58:06;13.05;;;7.65;;
39968;SDS011;25648;47.808;19.004;2022-10-18T15:00:38;10.15;;;6.40;;
39968;SDS011;25648;47.808;19.004;2022-10-18T15:03:04;11.35;;;6.90;;
39968;SDS011;25648;47.808;19.004;2022-10-18T15:05:34;11.70;;;7.43;;
39968;SDS011;25648;47.808;19.004;2022-10-18T15:08:00;11.98;;;8.10;;
39968;SDS011;25648;47.808;19.004;2022-10-18T15:10:27;18.15;;;10.32;;
39968;SDS011;25648;47.808;19.004;2022-10-18T15:12:56;15.43;;;9.50;;
39968;SDS011;25648;47.808;19.004;2022-10-18T15:15:27;16.80;;;8.13;;
39968;SDS011;25648;47.808;19.004;2022-10-18T15:17:56;13.60;;;8.45;;
39968;SDS011;25648;47.808;19.004;2022-10-18T15:23:22;12.65;;;8.23;;
39968;SDS011;25648;47.808;19.004;2022-10-18T15:25:50;18.65;;;7.90;;
39968;SDS011;25648;47.808;19.004;2022-10-18T15:28:27;12.65;;;6.93;;
39968;SDS011;25648;47.808;19.004;2022-10-18T15:30:55;10.27;;;6.80;;
39968;SDS011;25648;47.808;19.004;2022-10-18T15:33:22;14.77;;;12.85;;
39968;SDS011;25648;47.808;19.004;2022-10-18T15:35:50;19.05;;;8.65;;
39968;SDS011;25648;47.808;19.004;2022-10-18T15:38:24;13.85;;;7.82;;
39968;SDS011;25648;47.808;19.004;2022-10-18T15:40:52;17.90;;;8.27;;
39968;SDS011;25648;47.808;19.004;2022-10-18T15:45:59;34.55;;;14.68;;
39968;SDS011;25648;47.808;19.004;2022-10-18T15:51:04;91.35;;;34.40;;
39968;SDS011;25648;47.808;19.004;2022-10-18T15:53:56;89.78;;;35.25;;
39968;SDS011;25648;47.808;19.004;2022-10-18T15:58:58;60.70;;;26.45;;
39968;SDS011;25648;47.808;19.004;2022-10-18T16:01:36;116.22;;;51.75;;
39968;SDS011;25648;47.808;19.004;2022-10-18T16:04:06;118.70;;;60.97;;
39968;SDS011;25648;47.808;19.004;2022-10-18T16:06:53;78.13;;;38.65;;
39968;SDS011;25648;47.808;19.004;2022-10-18T16:09:21;75.35;;;36.42;;
39968;SDS011;25648;47.808;19.004;2022-10-18T16:11:49;85.85;;;41.45;;
39968;SDS011;25648;47.808;19.004;2022-10-18T16:14:16;94.25;;;43.85;;
39968;SDS011;25648;47.808;19.004;2022-10-18T16:16:45;76.88;;;41.65;;
39968;SDS011;25648;47.808;19.004;2022-10-18T16:19:13;67.70;;;35.10;;
39968;SDS011;25648;47.808;19.004;2022-10-18T16:21:42;51.92;;;28.17;;
39968;SDS011;25648;47.808;19.004;2022-10-18T16:24:08;50.60;;;28.52;;
39968;SDS011;25648;47.808;19.004;2022-10-18T16:26:34;37.53;;;18.77;;
39968;SDS011;25648;47.808;19.004;2022-10-18T16:29:01;23.45;;;13.10;;
39968;SDS011;25648;47.808;19.004;2022-10-18T16:31:29;22.35;;;13.27;;
39968;SDS011;25648;47.808;19.004;2022-10-18T16:33:56;20.33;;;13.00;;
39968;SDS011;25648;47.808;19.004;2022-10-18T16:36:26;64.63;;;22.15;;
39968;SDS011;25648;47.808;19.004;2022-10-18T16:41:19;23.60;;;16.38;;
39968;SDS011;25648;47.808;19.004;2022-10-18T16:43:46;14.57;;;11.10;;
39968;SDS011;25648;47.808;19.004;2022-10-18T16:46:23;18.95;;;10.90;;
39968;SDS011;25648;47.808;19.004;2022-10-18T16:48:53;20.88;;;11.98;;
39968;SDS011;25648;47.808;19.004;2022-10-18T16:51:19;32.05;;;15.48;;
39968;SDS011;25648;47.808;19.004;2022-10-18T16:53:45;17.35;;;12.05;;
39968;SDS011;25648;47.808;19.004;2022-10-18T16:56:12;15.70;;;9.75;;
39968;SDS011;25648;47.808;19.004;2022-10-18T16:58:42;14.82;;;9.65;;
39968;SDS011;25648;47.808;19.004;2022-10-18T17:01:12;14.75;;;10.32;;
39968;SDS011;25648;47.808;19.004;2022-10-18T17:03:40;18.13;;;14.48;;
39968;SDS011;25648;47.808;19.004;2022-10-18T17:06:10;14.80;;;10.40;;
39968;SDS011;25648;47.808;19.004;2022-10-18T17:08:42;14.57;;;9.57;;
39968;SDS011;25648;47.808;19.004;2022-10-18T17:11:08;15.40;;;9.75;;
39968;SDS011;25648;47.808;19.004;2022-10-18T17:13:34;23.63;;;17.55;;
39968;SDS011;25648;47.808;19.004;2022-10-18T17:16:00;18.90;;;14.82;;
39968;SDS011;25648;47.808;19.004;2022-10-18T17:18:27;18.02;;;12.88;;
39968;SDS011;25648;47.808;19.004;2022-10-18T17:20:57;15.27;;;11.25;;
39968;SDS011;25648;47.808;19.004;2022-10-18T17:23:26;16.77;;;12.23;;
39968;SDS011;25648;47.808;19.004;2022-10-18T17:25:52;24.15;;;15.23;;
39968;SDS011;25648;47.808;19.004;2022-10-18T17:28:18;21.73;;;14.30;;
39968;SDS011;25648;47.808;19.004;2022-10-18T17:30:44;17.63;;;12.25;;
39968;SDS011;25648;47.808;19.004;2022-10-18T17:33:11;20.30;;;14.55;;
39968;SDS011;25648;47.808;19.004;2022-10-18T17:35:38;34.35;;;17.88;;
39968;SDS011;25648;47.808;19.004;2022-10-18T17:38:05;19.73;;;12.13;;
39968;SDS011;25648;47.808;19.004;2022-10-18T17:40:32;21.23;;;12.88;;
39968;SDS011;25648;47.808;19.004;2022-10-18T17:42:58;32.97;;;19.65;;
39968;SDS011;25648;47.808;19.004;2022-10-18T17:45:24;31.27;;;18.40;;
39968;SDS011;25648;47.808;19.004;2022-10-18T17:47:50;32.25;;;18.85;;
39968;SDS011;25648;47.808;19.004;2022-10-18T17:50:16;23.90;;;12.65;;
39968;SDS011;25648;47.808;19.004;2022-10-18T17:52:42;24.42;;;13.82;;
39968;SDS011;25648;47.808;19.004;2022-10-18T17:55:24;22.30;;;14.02;;
39968;SDS011;25648;47.808;19.004;2022-10-18T17:57:51;20.40;;;12.27;;
39968;SDS011;25648;47.808;19.004;2022-10-18T18:00:17;34.90;;;31.55;;